Time;durP1;ratioP1;P1;durP2;ratioP2;P2;SDS_P1;SDS_P2;PMS_P1;PMS_P2;Temp;Humidity;BMP_temperature;BMP_pressure;BME280_temperature;BME280_humidity;BME280_pressure;Samples;Min_cycle;Max_cycle;Signal;HPM_P1;HPM_P2
2022/06/27 00:01:25;;;;;;;0.57;0.57;;;;;;;23.92;52.56;95334.75;5050213;28;20195;-65
2022/06/27 00:03:52;;;;;;;0.73;0.73;;;;;;;23.91;52.48;95332.41;5049933;28;20197;-68
2022/06/27 00:06:19;;;;;;;0.30;0.30;;;;;;;23.99;52.31;95334.25;5049873;28;20568;-65
2022/06/27 00:08:48;;;;;;;0.30;0.30;;;;;;;23.93;51.97;95322.97;5023770;28;20229;-65
2022/06/27 00:11:33;;;;;;;0.67;0.63;;;;;;;23.92;52.46;95334.00;5017864;28;20192;-65
2022/06/27 00:14:00;;;;;;;0.40;0.40;;;;;;;23.78;52.91;95331.59;5043756;28;20193;-66
2022/06/27 00:16:27;;;;;;;0.60;0.60;;;;;;;23.47;53.61;95333.06;5023683;28;20194;-64
2022/06/27 00:19:14;;;;;;;0.87;0.50;;;;;;;23.61;52.96;95329.03;5025671;28;20236;-67
2022/06/27 00:21:40;;;;;;;0.40;0.40;;;;;;;23.62;53.11;95335.19;5034971;28;20681;-65
2022/06/27 00:24:07;;;;;;;0.83;0.80;;;;;;;23.72;52.97;95332.13;5009701;28;20194;-65
2022/06/27 00:26:34;;;;;;;0.40;0.37;;;;;;;23.82;52.31;95335.19;5023340;28;20617;-64
2022/06/27 00:29:02;;;;;;;0.23;0.23;;;;;;;23.72;52.77;95334.78;5021042;28;20197;-66
2022/06/27 00:31:29;;;;;;;1.27;0.53;;;;;;;23.83;52.39;95330.63;5029302;28;20578;-65
2022/06/27 00:33:56;;;;;;;1.60;1.57;;;;;;;23.77;52.89;95331.91;5017270;28;20209;-66
2022/06/27 00:36:23;;;;;;;0.40;0.40;;;;;;;23.77;52.68;95338.06;5026705;28;20197;-64
2022/06/27 00:38:50;;;;;;;0.53;0.53;;;;;;;23.64;53.02;95338.31;5048904;28;20279;-66
2022/06/27 00:41:18;;;;;;;0.53;0.53;;;;;;;23.62;52.97;95324.47;5019767;28;20201;-65
2022/06/27 00:43:46;;;;;;;0.40;0.40;;;;;;;23.52;52.91;95324.88;5023368;28;20682;-64
2022/06/27 00:46:14;;;;;;;1.00;0.70;;;;;;;23.73;52.40;95325.66;5031243;28;20205;-66
2022/06/27 00:48:41;;;;;;;0.40;0.40;;;;;;;23.84;52.06;95326.81;5025582;28;20631;-64
2022/06/27 00:51:09;;;;;;;0.50;0.50;;;;;;;23.84;52.18;95321.47;5040465;28;20212;-65
2022/06/27 00:53:37;;;;;;;0.37;0.37;;;;;;;23.76;52.30;95324.97;5043243;28;20196;-64
2022/06/27 00:56:05;;;;;;;0.30;0.30;;;;;;;23.68;52.00;95325.84;5015363;28;20197;-65
2022/06/27 00:58:33;;;;;;;1.13;0.83;;;;;;;23.79;51.52;95324.34;5017429;28;20199;-66
2022/06/27 01:01:00;;;;;;;0.63;0.63;;;;;;;23.82;51.26;95319.13;5023204;28;20218;-67
2022/06/27 01:03:27;;;;;;;0.33;0.33;;;;;;;23.34;52.65;95318.09;5020074;28;20197;-66
2022/06/27 01:05:54;;;;;;;0.60;0.60;;;;;;;23.61;52.04;95312.22;5045576;28;20196;-65
2022/06/27 01:08:25;;;;;;;0.40;0.40;;;;;;;23.53;51.96;95305.03;5030053;28;20213;-64
2022/06/27 01:10:53;;;;;;;0.93;0.77;;;;;;;23.09;53.43;95301.06;5039637;28;20262;-66
2022/06/27 01:13:21;;;;;;;0.33;0.33;;;;;;;23.29;53.01;95305.69;5029006;28;20269;-65
2022/06/27 01:15:48;;;;;;;0.27;0.27;;;;;;;23.12;53.35;95309.22;5029702;28;20190;-64
2022/06/27 01:18:16;;;;;;;0.60;0.60;;;;;;;23.23;52.98;95301.59;5048869;28;20291;-64
2022/06/27 01:20:45;;;;;;;1.27;1.17;;;;;;;23.23;53.05;95312.28;5034276;28;20664;-65
2022/06/27 01:23:12;;;;;;;0.30;0.30;;;;;;;22.86;53.90;95303.22;5034438;28;20288;-66
2022/06/27 01:25:39;;;;;;;0.70;0.70;;;;;;;22.40;55.33;95313.94;5036425;28;20255;-65
2022/06/27 01:28:09;;;;;;;0.50;0.50;;;;;;;22.68;55.20;95307.06;5017632;28;20305;-67
2022/06/27 01:30:36;;;;;;;1.43;0.60;;;;;;;22.96;54.37;95312.75;5026097;28;20200;-65
2022/06/27 01:33:03;;;;;;;0.23;0.23;;;;;;;23.41;52.91;95313.00;5041336;28;20200;-66
2022/06/27 01:35:33;;;;;;;1.27;0.73;;;;;;;23.26;52.89;95333.03;5029884;28;20580;-65
2022/06/27 01:38:02;;;;;;;0.37;0.37;;;;;;;23.37;52.98;95328.13;5042203;28;20727;-64
2022/06/27 01:40:30;;;;;;;0.57;0.57;;;;;;;23.29;52.83;95331.59;5040098;28;20666;-65
2022/06/27 01:42:58;;;;;;;0.27;0.27;;;;;;;23.31;52.91;95335.56;5045027;28;20278;-64
2022/06/27 01:45:29;;;;;;;2.27;1.53;;;;;;;23.50;52.46;95332.44;5033530;28;20296;-66
2022/06/27 01:47:56;;;;;;;1.37;0.80;;;;;;;23.44;52.56;95329.19;5028803;28;20212;-64
2022/06/27 01:50:30;;;;;;;0.40;0.40;;;;;;;23.31;52.78;95334.75;5021620;28;20205;-65
2022/06/27 01:53:00;;;;;;;0.50;0.50;;;;;;;23.12;52.91;95317.22;5022768;28;20195;-65
2022/06/27 01:55:27;;;;;;;0.40;0.40;;;;;;;23.22;53.00;95334.00;5025047;28;20201;-65
2022/06/27 01:57:54;;;;;;;0.60;0.60;;;;;;;23.13;53.00;95308.13;5017939;28;20571;-64
2022/06/27 02:00:22;;;;;;;0.63;0.60;;;;;;;23.26;52.86;95338.41;5030991;28;20240;-66
2022/06/27 02:02:59;;;;;;;0.37;0.37;;;;;;;23.16;52.83;95333.41;5038827;28;20634;-66
2022/06/27 02:05:33;;;;;;;0.37;0.37;;;;;;;23.12;53.25;95338.63;5050717;28;20246;-64
2022/06/27 02:08:03;;;;;;;1.17;0.97;;;;;;;23.26;52.52;95337.59;5027382;28;20619;-64
2022/06/27 02:10:30;;;;;;;0.40;0.40;;;;;;;22.67;54.06;95345.59;5037324;28;20201;-65
2022/06/27 02:12:58;;;;;;;0.47;0.47;;;;;;;22.86;54.10;95347.88;5022171;28;20200;-65
2022/06/27 02:15:25;;;;;;;0.43;0.40;;;;;;;22.71;54.33;95349.19;5050791;28;20625;-65
2022/06/27 02:17:52;;;;;;;0.47;0.47;;;;;;;22.63;54.18;95341.19;5046141;28;20256;-65
2022/06/27 02:20:21;;;;;;;1.57;1.47;;;;;;;22.79;54.11;95356.38;5040785;28;20590;-64
2022/06/27 02:22:48;;;;;;;1.13;0.77;;;;;;;22.63;54.10;95355.34;5046657;28;20196;-66
2022/06/27 02:25:15;;;;;;;0.57;0.57;;;;;;;22.61;54.38;95344.19;5027586;28;20319;-65
2022/06/27 02:27:47;;;;;;;0.47;0.47;;;;;;;22.85;54.21;95357.78;5048269;28;20211;-65
2022/06/27 02:30:15;;;;;;;0.20;0.20;;;;;;;22.72;54.35;95356.09;5026050;28;20464;-66
2022/06/27 02:32:42;;;;;;;0.27;0.27;;;;;;;22.54;54.87;95359.91;5051316;28;20208;-67
2022/06/27 02:35:10;;;;;;;0.40;0.40;;;;;;;22.58;54.72;95355.53;5011959;28;20271;-63
2022/06/27 02:37:37;;;;;;;0.50;0.50;;;;;;;22.48;55.13;95363.84;5012189;28;20202;-65
2022/06/27 02:40:06;;;;;;;0.37;0.37;;;;;;;22.67;53.97;95361.63;5038052;28;21013;-64
2022/06/27 02:42:34;;;;;;;0.30;0.30;;;;;;;22.65;54.23;95355.81;5032642;28;20204;-65
2022/06/27 02:45:01;;;;;;;0.30;0.30;;;;;;;22.81;53.76;95366.78;5030556;28;20198;-65
2022/06/27 02:47:32;;;;;;;0.30;0.30;;;;;;;22.80;53.98;95363.31;5016565;28;20193;-65
2022/06/27 02:49:59;;;;;;;0.37;0.37;;;;;;;22.84;53.70;95369.59;5029910;28;20205;-66
2022/06/27 02:52:41;;;;;;;1.17;1.07;;;;;;;22.70;54.00;95369.00;5043429;28;20185;-65
2022/06/27 02:55:13;;;;;;;0.20;0.20;;;;;;;22.67;53.71;95374.19;5029878;28;20221;-66
2022/06/27 02:58:09;;;;;;;0.90;0.90;;;;;;;22.52;54.46;95377.34;5043685;28;20284;-64
2022/06/27 03:00:40;;;;;;;1.50;0.40;;;;;;;22.93;53.56;95378.34;5043841;28;20582;-64
2022/06/27 03:03:12;;;;;;;0.47;0.47;;;;;;;23.03;53.17;95377.97;5026907;28;20533;-64
2022/06/27 03:05:56;;;;;;;0.77;0.70;;;;;;;22.89;53.29;95379.31;5021096;28;20206;-64
2022/06/27 03:08:23;;;;;;;0.70;0.70;;;;;;;22.86;53.50;95370.03;5010268;28;20259;-65
2022/06/27 03:10:50;;;;;;;0.93;0.87;;;;;;;22.86;53.10;95380.72;5039507;28;20270;-65
2022/06/27 03:13:17;;;;;;;0.73;0.67;;;;;;;22.81;53.76;95380.13;5037751;28;20234;-65
2022/06/27 03:15:44;;;;;;;0.90;0.87;;;;;;;22.72;54.26;95387.38;5050567;28;20204;-65
2022/06/27 03:18:13;;;;;;;0.77;0.70;;;;;;;22.65;54.18;95387.06;5036639;28;20198;-64
2022/06/27 03:20:58;;;;;;;0.90;0.90;;;;;;;22.56;54.07;95384.44;5039984;28;20724;-65
2022/06/27 03:23:35;;;;;;;1.87;1.73;;;;;;;22.56;54.32;95380.97;5039682;28;20192;-64
2022/06/27 03:26:02;;;;;;;1.23;1.10;;;;;;;22.65;54.27;95377.19;5020649;28;20230;-65
2022/06/27 03:28:33;;;;;;;1.10;1.00;;;;;;;22.34;56.50;95371.25;5033649;28;20212;-67
2022/06/27 03:31:02;;;;;;;2.10;1.07;;;;;;;22.59;55.21;95367.00;5024556;28;20436;-65
2022/06/27 03:33:34;;;;;;;0.90;0.70;;;;;;;22.72;54.83;95377.47;5023414;28;20205;-64
2022/06/27 03:36:23;;;;;;;0.80;0.80;;;;;;;22.67;55.46;95374.97;5029274;28;20220;-64
2022/06/27 03:38:50;;;;;;;0.83;0.57;;;;;;;22.45;56.09;95383.19;5017596;28;20205;-66
2022/06/27 03:41:20;;;;;;;1.00;1.00;;;;;;;22.77;55.10;95379.97;5029691;28;20304;-65
2022/06/27 03:43:49;;;;;;;0.67;0.67;;;;;;;22.86;54.36;95378.03;5041298;28;20208;-65
2022/06/27 03:46:17;;;;;;;0.30;0.30;;;;;;;22.44;56.51;95386.97;5019561;28;20245;-64
2022/06/27 03:51:39;;;;;;;2.43;1.13;;;;;;;22.35;56.77;95383.53;5010429;28;20212;-67
2022/06/27 03:54:06;;;;;;;0.83;0.80;;;;;;;22.63;55.90;95379.38;5026361;28;20205;-66
2022/06/27 03:56:33;;;;;;;0.47;0.47;;;;;;;22.71;55.73;95381.25;5030488;28;20201;-65
2022/06/27 03:59:00;;;;;;;1.50;0.67;;;;;;;22.89;55.31;95390.78;5040496;28;20884;-66
2022/06/27 04:01:27;;;;;;;0.60;0.60;;;;;;;22.44;56.70;95386.97;5009024;28;20252;-66
2022/06/27 04:03:54;;;;;;;0.57;0.57;;;;;;;22.72;55.70;95388.16;5007265;28;20661;-65
2022/06/27 04:06:23;;;;;;;0.40;0.40;;;;;;;22.91;54.71;95385.13;5018416;28;20660;-65
2022/06/27 04:08:51;;;;;;;0.40;0.40;;;;;;;22.77;55.61;95374.63;5021542;28;20638;-65
2022/06/27 04:11:17;;;;;;;0.73;0.73;;;;;;;22.97;54.90;95384.59;5047872;28;20611;-64
2022/06/27 04:13:48;;;;;;;0.70;0.57;;;;;;;23.05;54.35;95381.13;5023502;28;20255;-65
2022/06/27 04:16:34;;;;;;;0.30;0.30;;;;;;;22.84;54.26;95377.59;5009845;28;20212;-65
2022/06/27 04:19:19;;;;;;;0.43;0.43;;;;;;;22.97;54.18;95381.94;5025776;28;20218;-68
2022/06/27 04:21:46;;;;;;;0.87;0.87;;;;;;;23.10;53.38;95367.56;5021865;28;20311;-64
2022/06/27 04:24:32;;;;;;;0.60;0.53;;;;;;;22.88;52.83;95381.19;5040196;28;20299;-68
2022/06/27 04:26:59;;;;;;;0.77;0.77;;;;;;;23.02;52.79;95381.78;5035458;28;20204;-67
2022/06/27 04:29:26;;;;;;;0.30;0.30;;;;;;;23.14;52.39;95383.75;5046151;28;20299;-67
2022/06/27 04:31:53;;;;;;;0.10;0.10;;;;;;;23.32;51.84;95384.47;5008073;28;20198;-66
2022/06/27 04:34:24;;;;;;;0.70;0.70;;;;;;;22.53;52.72;95385.06;5024023;28;20201;-66
2022/06/27 04:36:53;;;;;;;1.10;0.50;;;;;;;23.07;52.06;95381.59;5034420;28;20206;-63
2022/06/27 04:39:20;;;;;;;1.30;0.87;;;;;;;23.27;51.59;95387.28;5020005;28;20193;-63
2022/06/27 04:41:50;;;;;;;0.70;0.70;;;;;;;23.04;51.39;95358.19;5010023;28;20997;-68
2022/06/27 04:44:20;;;;;;;0.53;0.53;;;;;;;23.46;50.27;95383.13;5031948;28;20207;-66
2022/06/27 04:46:48;;;;;;;2.30;2.10;;;;;;;23.64;50.42;95386.47;5030986;28;20233;-66
2022/06/27 04:49:42;;;;;;;3.47;3.17;;;;;;;23.61;50.70;95379.09;5008334;28;20205;-67
2022/06/27 04:52:11;;;;;;;9.80;8.00;;;;;;;23.74;50.78;95376.16;5038456;28;20211;-66
2022/06/27 04:54:38;;;;;;;1.80;1.57;;;;;;;23.88;50.76;95378.59;5031431;28;20763;-65
2022/06/27 04:57:06;;;;;;;2.90;2.20;;;;;;;23.87;50.75;95382.34;5024270;28;20198;-67
2022/06/27 04:59:35;;;;;;;0.93;0.57;;;;;;;22.99;54.12;95382.41;5014873;28;20687;-65
2022/06/27 05:02:16;;;;;;;0.40;0.40;;;;;;;22.91;54.64;95383.22;5043432;28;20675;-65
2022/06/27 05:04:43;;;;;;;1.50;0.80;;;;;;;23.11;54.46;95390.53;5021855;28;20235;-65
2022/06/27 05:07:10;;;;;;;0.80;0.80;;;;;;;23.38;53.15;95383.16;5022753;28;20194;-65
2022/06/27 05:09:37;;;;;;;0.53;0.53;;;;;;;23.52;53.08;95389.09;5008012;28;20198;-67
2022/06/27 05:12:04;;;;;;;1.00;0.87;;;;;;;23.51;53.11;95382.16;5024377;28;20296;-68
2022/06/27 05:14:31;;;;;;;4.20;3.63;;;;;;;23.76;52.83;95381.19;5026036;28;20193;-68
2022/06/27 05:17:00;;;;;;;3.37;1.83;;;;;;;23.68;52.98;95384.72;5020688;28;20594;-67
2022/06/27 05:19:31;;;;;;;3.80;2.00;;;;;;;23.76;52.24;95368.59;5040038;28;20207;-65
2022/06/27 05:21:59;;;;;;;1.10;1.00;;;;;;;23.33;53.76;95396.72;5021500;28;20823;-67
2022/06/27 05:24:29;;;;;;;1.13;0.93;;;;;;;23.77;53.87;95390.78;5045329;28;20316;-65
2022/06/27 05:26:56;;;;;;;0.50;0.33;;;;;;;23.94;53.51;95398.69;5031267;28;20574;-66
2022/06/27 05:29:23;;;;;;;1.33;0.83;;;;;;;23.91;54.10;95393.97;5046347;28;20295;-65
2022/06/27 05:31:50;;;;;;;1.17;0.80;;;;;;;24.18;52.85;95390.78;5039711;28;20623;-69
2022/06/27 05:34:23;;;;;;;7.80;5.80;;;;;;;24.37;52.29;95393.78;5037601;28;20259;-68
2022/06/27 05:36:50;;;;;;;5.57;3.20;;;;;;;24.04;53.60;95403.66;5017749;28;20200;-64
2022/06/27 05:39:17;;;;;;;2.07;1.17;;;;;;;24.54;52.08;95398.94;5043474;28;20205;-65
2022/06/27 05:41:45;;;;;;;0.67;0.57;;;;;;;23.94;53.75;95396.03;5029440;28;20227;-66
2022/06/27 05:44:18;;;;;;;0.53;0.53;;;;;;;23.50;54.83;95397.41;5023118;28;20203;-65
2022/06/27 05:46:46;;;;;;;1.30;1.20;;;;;;;23.36;55.59;95401.44;5018692;28;20289;-66
2022/06/27 05:49:43;;;;;;;0.67;0.40;;;;;;;23.70;54.70;95395.88;5019243;28;20205;-65
2022/06/27 05:52:11;;;;;;;1.33;1.23;;;;;;;23.84;54.72;95396.41;5024287;28;20292;-65
2022/06/27 05:54:38;;;;;;;1.33;1.13;;;;;;;24.66;52.33;95400.88;5021043;28;20194;-66
2022/06/27 05:57:05;;;;;;;0.87;0.87;;;;;;;24.50;51.75;95397.28;5037355;28;20201;-65
2022/06/27 05:59:34;;;;;;;0.90;0.53;;;;;;;24.40;52.87;95403.03;5037113;28;20202;-66
2022/06/27 06:02:02;;;;;;;1.50;0.90;;;;;;;24.95;51.72;95404.22;5036837;28;20212;-66
2022/06/27 06:04:35;;;;;;;4.70;1.80;;;;;;;24.50;53.77;95405.31;5022875;28;20196;-65
2022/06/27 06:07:04;;;;;;;1.23;1.13;;;;;;;24.67;52.95;95403.22;5050840;28;20205;-65
2022/06/27 06:09:33;;;;;;;0.63;0.63;;;;;;;24.32;53.98;95407.38;5017551;28;20288;-66
2022/06/27 06:12:00;;;;;;;0.80;0.80;;;;;;;25.05;51.33;95403.75;5042196;28;20196;-66
2022/06/27 06:14:32;;;;;;;1.80;1.33;;;;;;;25.20;51.03;95406.91;5046150;28;20217;-66
2022/06/27 06:16:59;;;;;;;1.57;0.97;;;;;;;24.87;52.89;95413.13;5041537;28;20247;-66
2022/06/27 06:19:26;;;;;;;0.90;0.90;;;;;;;25.23;51.78;95414.28;5036345;28;20211;-66
2022/06/27 06:21:53;;;;;;;1.00;0.90;;;;;;;24.96;51.85;95410.38;5050378;28;20224;-67
2022/06/27 06:24:20;;;;;;;0.90;0.90;;;;;;;24.91;52.14;95418.59;5035416;28;20201;-67
2022/06/27 06:26:52;;;;;;;0.97;0.80;;;;;;;25.22;51.82;95407.38;5029265;28;20229;-66
2022/06/27 06:29:21;;;;;;;0.83;0.83;;;;;;;25.53;50.99;95419.09;5032149;28;20586;-67
2022/06/27 06:31:59;;;;;;;0.90;0.87;;;;;;;25.21;52.01;95422.69;5034498;28;20190;-65
2022/06/27 06:34:35;;;;;;;0.50;0.50;;;;;;;24.97;53.59;95418.06;5027027;28;20212;-69
2022/06/27 06:37:02;;;;;;;1.77;1.67;;;;;;;25.50;51.08;95409.06;5050148;28;20228;-66
2022/06/27 06:39:30;;;;;;;0.80;0.80;;;;;;;24.88;52.29;95409.34;5050152;28;20247;-67
2022/06/27 06:41:59;;;;;;;2.43;2.20;;;;;;;25.09;52.24;95412.72;5011944;28;20297;-67
2022/06/27 06:44:31;;;;;;;1.57;1.47;;;;;;;25.39;51.11;95417.88;5010306;28;20669;-66
2022/06/27 06:47:26;;;;;;;1.13;1.03;;;;;;;25.91;50.13;95416.06;5018852;28;20205;-66
2022/06/27 06:50:00;;;;;;;0.70;0.70;;;;;;;25.46;51.41;95420.78;5037917;28;20205;-65
2022/06/27 06:52:30;;;;;;;1.27;1.17;;;;;;;25.61;50.54;95425.47;5048765;28;20204;-66
2022/06/27 06:54:57;;;;;;;1.77;1.67;;;;;;;25.72;50.10;95426.59;5040476;28;20208;-66
2022/06/27 06:57:24;;;;;;;1.13;0.77;;;;;;;25.96;49.03;95426.56;5044509;28;20201;-66
2022/06/27 06:59:50;;;;;;;1.73;1.23;;;;;;;25.44;51.37;95425.72;5022325;28;20632;-68
2022/06/27 07:02:17;;;;;;;1.67;1.47;;;;;;;26.22;49.32;95426.97;5011909;28;20233;-67
2022/06/27 07:04:44;;;;;;;1.93;1.33;;;;;;;26.20;48.40;95421.16;5030846;28;20247;-67
2022/06/27 07:07:12;;;;;;;1.23;1.13;;;;;;;26.11;48.83;95423.19;5030654;28;20205;-66
2022/06/27 07:09:39;;;;;;;0.77;0.77;;;;;;;25.74;49.70;95424.34;5017214;28;20196;-68
2022/06/27 07:12:08;;;;;;;0.93;0.77;;;;;;;25.31;48.39;95421.44;5043077;28;20200;-67
2022/06/27 07:14:35;;;;;;;1.53;1.17;;;;;;;25.84;49.42;95424.66;5017627;28;20203;-65
2022/06/27 07:17:02;;;;;;;0.67;0.63;;;;;;;26.16;47.39;95428.31;5041752;28;20193;-66
2022/06/27 07:19:29;;;;;;;1.57;1.00;;;;;;;26.06;47.25;95426.09;5050363;28;20234;-67
2022/06/27 07:21:56;;;;;;;1.20;1.10;;;;;;;26.93;46.12;95432.38;5041363;28;20232;-67
2022/06/27 07:24:22;;;;;;;1.83;1.73;;;;;;;26.93;46.52;95433.13;5043161;28;20200;-66
2022/06/27 07:26:50;;;;;;;0.63;0.63;;;;;;;26.64;48.93;95430.78;5025608;28;20757;-67
2022/06/27 07:29:17;;;;;;;0.87;0.87;;;;;;;26.95;47.49;95425.50;5023147;28;20208;-66
2022/06/27 07:31:44;;;;;;;0.90;0.90;;;;;;;27.28;44.96;95430.53;5022664;28;20203;-67
2022/06/27 07:34:12;;;;;;;0.90;0.90;;;;;;;27.23;44.23;95430.00;5026198;28;20301;-67
2022/06/27 07:36:39;;;;;;;0.60;0.60;;;;;;;27.02;44.36;95425.66;5038207;28;20182;-67
2022/06/27 07:39:07;;;;;;;1.73;1.37;;;;;;;27.19;42.88;95429.16;5021151;28;20312;-66
2022/06/27 07:41:35;;;;;;;0.47;0.47;;;;;;;27.00;44.46;95427.94;5032881;28;20224;-68
2022/06/27 07:44:03;;;;;;;0.80;0.80;;;;;;;27.30;44.78;95420.22;5050003;28;20197;-66
2022/06/27 07:46:31;;;;;;;0.60;0.60;;;;;;;27.27;45.13;95414.75;5028298;28;20244;-66
2022/06/27 07:48:59;;;;;;;1.17;1.07;;;;;;;27.50;43.18;95423.81;5038742;28;20196;-66
2022/06/27 07:51:27;;;;;;;0.63;0.63;;;;;;;27.49;42.72;95427.59;5029373;28;20632;-65
2022/06/27 07:53:54;;;;;;;0.50;0.50;;;;;;;27.12;43.17;95418.22;5022257;28;20202;-68
2022/06/27 07:56:22;;;;;;;0.93;0.93;;;;;;;27.32;44.03;95422.56;5040279;28;20653;-67
2022/06/27 07:59:10;;;;;;;1.47;1.37;;;;;;;27.75;42.57;95415.16;5046955;28;20200;-69
2022/06/27 08:01:37;;;;;;;1.73;1.63;;;;;;;27.98;40.59;95420.66;5031172;28;20214;-66
2022/06/27 08:04:05;;;;;;;1.10;0.90;;;;;;;27.34;42.24;95415.72;5041293;28;20267;-69
2022/06/27 08:06:33;;;;;;;0.50;0.50;;;;;;;27.69;41.67;95408.47;5050325;28;20208;-67
2022/06/27 08:09:05;;;;;;;1.90;1.13;;;;;;;27.53;41.32;95420.41;5021835;28;20240;-67
2022/06/27 08:11:36;;;;;;;0.87;0.83;;;;;;;27.76;42.40;95418.59;5037711;28;20190;-67
2022/06/27 08:14:17;;;;;;;0.53;0.53;;;;;;;27.32;40.08;95415.28;5038922;28;20209;-69
2022/06/27 08:16:51;;;;;;;0.93;0.90;;;;;;;27.97;39.93;95414.50;5041079;28;20197;-67
2022/06/27 08:19:19;;;;;;;0.47;0.47;;;;;;;28.37;40.00;95418.78;5029733;28;20197;-65
2022/06/27 08:21:47;;;;;;;1.60;1.50;;;;;;;28.06;40.64;95414.31;5021922;28;20318;-67
2022/06/27 08:24:16;;;;;;;0.87;0.87;;;;;;;27.87;39.91;95416.94;5038283;28;20235;-66
2022/06/27 08:26:46;;;;;;;1.07;0.97;;;;;;;27.59;39.49;95400.16;5036394;28;20228;-67
2022/06/27 08:29:15;;;;;;;0.93;0.87;;;;;;;27.55;39.13;95410.06;5023160;28;20194;-64
2022/06/27 08:31:44;;;;;;;1.40;1.00;;;;;;;27.70;39.99;95411.94;5043799;28;20196;-67
2022/06/27 08:34:13;;;;;;;1.00;0.90;;;;;;;28.45;39.61;95410.47;5041710;28;20201;-66
2022/06/27 08:36:40;;;;;;;3.13;1.23;;;;;;;28.70;39.98;95417.13;5034969;28;20682;-67
2022/06/27 08:39:16;;;;;;;1.30;1.20;;;;;;;28.37;39.51;95408.78;5027894;28;20206;-66
2022/06/27 08:41:45;;;;;;;0.63;0.63;;;;;;;29.02;39.45;95403.44;5041907;28;20229;-66
2022/06/27 08:44:12;;;;;;;1.00;1.00;;;;;;;28.91;39.08;95404.03;5040520;28;20204;-68
2022/06/27 08:46:41;;;;;;;0.50;0.47;;;;;;;29.06;38.66;95415.84;5020231;28;20225;-66
2022/06/27 08:49:14;;;;;;;1.53;0.70;;;;;;;28.77;39.34;95409.19;5037633;28;20212;-65
2022/06/27 08:51:43;;;;;;;0.40;0.40;;;;;;;28.98;40.42;95409.56;5032513;28;20738;-65
2022/06/27 08:54:10;;;;;;;0.43;0.43;;;;;;;29.40;37.65;95406.00;5048958;28;20721;-65
2022/06/27 08:56:37;;;;;;;0.67;0.60;;;;;;;29.78;38.03;95405.88;5038671;28;20244;-67
2022/06/27 08:59:05;;;;;;;1.07;0.67;;;;;;;29.35;38.02;95412.50;5042894;28;20216;-67
2022/06/27 09:01:32;;;;;;;1.33;1.23;;;;;;;29.64;37.36;95411.81;5029130;28;20228;-67
2022/06/27 09:04:09;;;;;;;0.57;0.57;;;;;;;29.85;38.74;95405.97;5029007;28;20224;-67
2022/06/27 09:06:55;;;;;;;0.70;0.70;;;;;;;29.49;38.54;95393.06;5029498;28;20201;-66
2022/06/27 09:09:24;;;;;;;0.77;0.77;;;;;;;29.57;36.68;95410.91;5015620;28;20231;-66
2022/06/27 09:11:51;;;;;;;0.47;0.47;;;;;;;29.86;36.54;95413.69;5039657;28;20656;-67
2022/06/27 09:14:39;;;;;;;0.83;0.60;;;;;;;29.19;36.76;95402.97;5043801;28;20614;-67
2022/06/27 09:17:13;;;;;;;0.63;0.63;;;;;;;29.54;37.20;95411.66;5032571;28;20228;-66
2022/06/27 09:19:50;;;;;;;0.67;0.67;;;;;;;29.22;36.70;95404.94;5034523;28;20686;-65
2022/06/27 09:22:19;;;;;;;1.00;0.60;;;;;;;28.70;37.21;95405.59;5036512;28;20304;-64
2022/06/27 09:25:20;;;;;;;0.50;0.50;;;;;;;29.30;36.70;95409.34;5047041;28;20271;-67
2022/06/27 09:27:50;;;;;;;0.90;0.90;;;;;;;29.44;36.24;95406.84;5048992;28;20203;-64
2022/06/27 09:30:20;;;;;;;1.00;0.60;;;;;;;29.46;36.34;95402.66;5048779;28;20746;-67
2022/06/27 09:32:52;;;;;;;0.83;0.83;;;;;;;29.09;37.02;95406.28;5019749;28;20686;-66
2022/06/27 09:35:28;;;;;;;0.57;0.57;;;;;;;29.36;37.33;95399.81;5024393;28;20288;-66
2022/06/27 09:37:58;;;;;;;0.90;0.90;;;;;;;29.32;36.79;95396.25;5048741;28;20703;-64
2022/06/27 09:40:27;;;;;;;1.27;1.17;;;;;;;29.46;36.37;95399.16;5033949;28;20629;-67
2022/06/27 09:43:03;;;;;;;1.23;0.80;;;;;;;29.16;38.14;95395.63;5038260;28;20289;-67
2022/06/27 09:45:30;;;;;;;1.80;1.27;;;;;;;29.39;37.56;95393.66;5025952;28;20276;-66
2022/06/27 09:48:02;;;;;;;0.40;0.40;;;;;;;29.53;36.73;95388.47;5018092;28;20189;-65
2022/06/27 09:50:34;;;;;;;0.73;0.73;;;;;;;29.73;35.98;95392.66;5044783;28;20203;-66
2022/06/27 09:53:02;;;;;;;0.60;0.60;;;;;;;29.33;39.42;95395.09;5048889;28;20201;-66
2022/06/27 09:55:30;;;;;;;0.90;0.90;;;;;;;29.53;37.85;95393.88;5034317;28;20204;-66
2022/06/27 09:57:57;;;;;;;0.87;0.87;;;;;;;29.74;36.56;95400.38;5034429;28;20220;-65
2022/06/27 10:00:25;;;;;;;0.60;0.60;;;;;;;30.00;36.54;95396.88;5021987;28;20209;-66
2022/06/27 10:02:54;;;;;;;1.27;1.17;;;;;;;30.23;36.31;95392.16;5016426;28;20217;-67
2022/06/27 10:05:21;;;;;;;0.60;0.60;;;;;;;30.43;37.08;95395.50;5020027;28;20244;-66
2022/06/27 10:08:01;;;;;;;0.43;0.43;;;;;;;30.42;35.37;95385.84;5012380;28;20200;-67
2022/06/27 10:10:29;;;;;;;0.60;0.60;;;;;;;30.26;35.40;95385.25;5038275;28;20662;-65
2022/06/27 10:12:58;;;;;;;0.47;0.40;;;;;;;29.47;35.21;95384.53;5018727;28;20197;-64
2022/06/27 10:15:26;;;;;;;0.57;0.57;;;;;;;28.95;36.54;95380.59;5019941;28;20727;-65
2022/06/27 10:17:56;;;;;;;0.73;0.70;;;;;;;29.31;35.59;95386.59;5034095;28;20200;-66
2022/06/27 10:20:26;;;;;;;7.00;2.20;;;;;;;30.14;37.02;95372.75;5041246;28;20197;-66
2022/06/27 10:23:31;;;;;;;0.50;0.50;;;;;;;30.60;35.41;95371.34;5032190;28;20559;-66
2022/06/27 10:25:58;;;;;;;0.40;0.40;;;;;;;30.92;36.98;95365.50;5017536;28;20237;-68
2022/06/27 10:28:25;;;;;;;0.50;0.50;;;;;;;30.95;37.16;95364.78;5038969;28;20215;-65
2022/06/27 10:30:59;;;;;;;1.43;0.77;;;;;;;30.24;37.05;95369.38;5051925;28;20200;-64
2022/06/27 10:33:26;;;;;;;0.87;0.87;;;;;;;30.85;36.75;95364.31;5024262;28;20200;-65
2022/06/27 10:36:02;;;;;;;0.63;0.63;;;;;;;31.47;35.77;95359.00;5051646;28;20196;-66
2022/06/27 10:38:45;;;;;;;0.80;0.70;;;;;;;30.89;36.52;95356.97;5037798;28;20200;-65
2022/06/27 10:41:18;;;;;;;0.80;0.80;;;;;;;30.86;34.84;95363.16;5037539;28;20223;-66
2022/06/27 10:43:47;;;;;;;0.70;0.70;;;;;;;30.88;33.92;95360.06;5038868;28;20262;-66
2022/06/27 10:46:17;;;;;;;0.53;0.53;;;;;;;31.39;34.33;95363.59;5029137;28;20202;-65
2022/06/27 10:48:59;;;;;;;0.50;0.50;;;;;;;31.53;34.36;95349.38;5042161;28;20266;-66
2022/06/27 10:51:35;;;;;;;0.40;0.40;;;;;;;31.39;34.80;95358.19;5032112;28;20663;-65
2022/06/27 10:54:04;;;;;;;0.50;0.50;;;;;;;31.50;33.55;95353.63;5031452;28;20199;-66
2022/06/27 10:56:32;;;;;;;0.47;0.47;;;;;;;31.79;33.36;95354.56;5041569;28;20255;-67
2022/06/27 10:59:01;;;;;;;0.70;0.70;;;;;;;32.04;32.76;95350.09;5043467;28;20216;-66
2022/06/27 11:01:29;;;;;;;0.77;0.77;;;;;;;31.56;32.37;95351.34;5027981;28;20192;-66
2022/06/27 11:03:56;;;;;;;0.67;0.67;;;;;;;32.18;32.23;95352.84;5050664;28;20206;-66
2022/06/27 11:06:23;;;;;;;0.80;0.80;;;;;;;32.40;33.63;95359.13;5038070;28;20678;-66
2022/06/27 11:08:53;;;;;;;1.10;0.63;;;;;;;32.76;33.36;95352.63;5024429;28;20287;-66
2022/06/27 11:11:27;;;;;;;0.70;0.70;;;;;;;32.81;31.03;95338.66;5017638;28;20205;-66
2022/06/27 11:13:59;;;;;;;0.57;0.57;;;;;;;33.09;30.72;95346.09;5030330;28;20292;-67
2022/06/27 11:16:33;;;;;;;0.70;0.70;;;;;;;33.28;31.72;95345.72;5011083;28;20260;-64
2022/06/27 11:21:52;;;;;;;0.83;0.83;;;;;;;32.78;31.35;95345.66;5020080;28;20625;-65
2022/06/27 11:24:19;;;;;;;0.90;0.90;;;;;;;32.74;31.88;95339.44;5031943;28;20259;-65
2022/06/27 11:26:48;;;;;;;0.60;0.60;;;;;;;32.37;32.79;95338.94;5043046;28;20229;-65
2022/06/27 11:32:14;;;;;;;0.70;0.70;;;;;;;32.03;32.42;95342.31;5030152;28;20200;-65
2022/06/27 11:34:43;;;;;;;0.60;0.60;;;;;;;32.31;31.54;95332.34;5036306;28;20288;-66
2022/06/27 11:37:16;;;;;;;0.83;0.83;;;;;;;32.36;31.83;95340.13;5050577;28;20647;-64
2022/06/27 11:40:06;;;;;;;0.70;0.70;;;;;;;32.87;31.16;95329.00;5036492;28;20197;-66
2022/06/27 11:42:35;;;;;;;1.07;0.60;;;;;;;32.93;31.57;95332.09;5050077;28;20223;-68
2022/06/27 11:45:08;;;;;;;1.03;0.97;;;;;;;33.25;31.38;95330.22;5032439;28;20193;-65
2022/06/27 11:47:40;;;;;;;0.57;0.57;;;;;;;32.40;31.33;95335.47;5016355;28;20730;-66
2022/06/27 11:50:13;;;;;;;1.10;0.80;;;;;;;33.01;30.61;95325.56;5018042;28;20205;-65
2022/06/27 11:52:45;;;;;;;0.50;0.50;;;;;;;33.32;29.13;95330.19;5022140;28;20258;-66
2022/06/27 11:55:17;;;;;;;1.33;1.23;;;;;;;33.37;31.31;95327.84;5050264;28;20227;-64
2022/06/27 11:57:50;;;;;;;0.53;0.53;;;;;;;33.55;30.43;95333.28;5044479;28;20751;-67